Time;durP1;ratioP1;P1;durP2;ratioP2;P2;SDS_P1;SDS_P2;PMS_P1;PMS_P2;Temp;Humidity;BMP_temperature;BMP_pressure;BME280_temperature;BME280_humidity;BME280_pressure;Samples;Min_cycle;Max_cycle;Signal;HPM_P1;HPM_P2
2021/12/16 00:10:22;;;;;;;32.13;17.85;;;;;;;1.22;100.00;100771.48;1731816;82;21724;-82
2021/12/16 00:33:18;;;;;;;23.83;14.20;;;;;;;1.34;100.00;100796.27;1735038;82;21201;-82
2021/12/16 00:36:21;;;;;;;26.65;17.25;;;;;;;1.34;100.00;100796.75;1733276;83;21272;-82
2021/12/16 00:39:34;;;;;;;22.20;14.13;;;;;;;1.32;100.00;100791.48;1735290;82;21276;-82
2021/12/16 00:42:56;;;;;;;26.00;16.42;;;;;;;1.31;100.00;100795.60;1803613;79;21319;-82
2021/12/16 00:46:13;;;;;;;26.52;16.17;;;;;;;1.30;100.00;100803.31;1802083;79;21177;-82
2021/12/16 00:49:21;;;;;;;30.17;17.20;;;;;;;1.31;100.00;100805.03;1802352;79;21169;-82
2021/12/16 00:55:50;;;;;;;29.75;17.15;;;;;;;1.29;100.00;100795.72;1732614;83;21264;-82
2021/12/16 00:59:00;;;;;;;29.18;17.73;;;;;;;1.31;100.00;100788.86;1733450;83;22565;-82
2021/12/16 01:02:22;;;;;;;29.55;19.62;;;;;;;1.30;100.00;100789.84;1745659;82;21344;-82
2021/12/16 01:45:24;;;;;;;23.42;13.90;;;;;;;1.26;100.00;100783.30;1733667;82;21201;-82
2021/12/16 01:55:24;;;;;;;23.52;15.98;;;;;;;1.17;100.00;100785.27;1796463;79;21378;-81
2021/12/16 01:58:29;;;;;;;23.07;16.52;;;;;;;1.16;100.00;100784.91;1707377;84;22652;-82
2021/12/16 02:01:34;;;;;;;22.98;16.23;;;;;;;1.14;100.00;100790.89;1783978;80;21293;-81
2021/12/16 02:28:15;;;;;;;43.68;24.87;;;;;;;1.30;100.00;100812.75;1708935;84;21205;-82
2021/12/16 02:37:31;;;;;;;43.52;23.05;;;;;;;1.27;100.00;100824.59;1729354;82;21844;-81
2021/12/16 02:40:34;;;;;;;36.85;21.15;;;;;;;1.26;100.00;100827.77;1730609;83;21309;-81
2021/12/16 02:50:08;;;;;;;36.13;20.35;;;;;;;1.18;100.00;100824.75;1785329;80;21158;-81
2021/12/16 02:53:13;;;;;;;36.68;21.00;;;;;;;1.18;100.00;100831.98;1698008;84;21178;-81
2021/12/16 02:56:18;;;;;;;37.78;22.75;;;;;;;1.15;100.00;100828.99;1792830;79;21862;-81
2021/12/16 02:59:27;;;;;;;42.75;23.98;;;;;;;1.15;100.00;100816.87;1734762;83;21193;-82
2021/12/16 03:02:32;;;;;;;34.92;19.42;;;;;;;1.16;100.00;100820.42;1803731;79;21255;-81
2021/12/16 03:05:37;;;;;;;36.60;21.23;;;;;;;1.15;100.00;100822.26;1803485;79;21249;-81
2021/12/16 03:08:42;;;;;;;43.15;24.95;;;;;;;1.15;100.00;100822.26;1803509;79;21796;-81
2021/12/16 03:19:04;;;;;;;43.40;23.45;;;;;;;1.19;100.00;100826.47;1856780;76;22229;-82
2021/12/16 03:21:58;;;;;;;46.70;23.77;;;;;;;1.14;100.00;100827.76;1817368;79;21281;-82
2021/12/16 03:25:13;;;;;;;56.15;24.75;;;;;;;1.15;100.00;100814.66;1817056;79;21889;-82
2021/12/16 03:29:33;;;;;;;43.55;23.67;;;;;;;1.17;100.00;100823.00;1815579;79;21307;-82
2021/12/16 03:34:56;;;;;;;42.40;23.00;;;;;;;1.15;100.00;100803.88;1817877;79;21169;-82
2021/12/16 03:37:50;;;;;;;43.80;24.72;;;;;;;1.16;100.00;100805.11;1818303;79;21322;-82
2021/12/16 03:40:55;;;;;;;39.78;22.27;;;;;;;1.18;100.00;100809.08;1818206;79;21696;-82
2021/12/16 03:44:00;;;;;;;42.17;22.80;;;;;;;1.15;100.00;100802.53;1818289;79;21780;-82
2021/12/16 03:47:07;;;;;;;34.67;20.62;;;;;;;1.13;100.00;100803.10;1817912;79;21181;-82
2021/12/16 03:50:16;;;;;;;30.17;17.80;;;;;;;1.13;100.00;100806.69;1818331;79;21256;-82
2021/12/16 03:53:22;;;;;;;37.40;22.10;;;;;;;1.10;100.00;100800.16;1818011;79;21287;-82
2021/12/16 03:56:29;;;;;;;31.30;19.05;;;;;;;1.09;100.00;100789.00;1817139;79;21287;-82
2021/12/16 03:59:39;;;;;;;37.73;20.68;;;;;;;1.10;100.00;100782.64;1818000;79;21243;-82
2021/12/16 04:02:50;;;;;;;40.63;22.07;;;;;;;1.08;100.00;100776.95;1815305;79;21149;-82
2021/12/16 04:05:58;;;;;;;40.38;20.30;;;;;;;1.05;100.00;100771.80;1793089;79;21745;-82
2021/12/16 04:09:03;;;;;;;28.42;18.12;;;;;;;1.01;100.00;100775.17;1816452;79;21259;-82
2021/12/16 04:12:13;;;;;;;32.48;18.35;;;;;;;1.03;100.00;100785.35;1788857;79;21164;-82
2021/12/16 04:15:17;;;;;;;30.68;17.92;;;;;;;1.02;100.00;100782.28;1788444;79;21125;-82
2021/12/16 04:18:23;;;;;;;26.57;17.40;;;;;;;0.97;100.00;100784.43;1755922;80;21176;-82
2021/12/16 04:21:28;;;;;;;22.65;14.40;;;;;;;0.95;100.00;100777.81;1755407;82;21172;-82
2021/12/16 04:24:34;;;;;;;31.90;17.45;;;;;;;0.96;100.00;100770.59;1755058;82;21202;-82
2021/12/16 04:27:38;;;;;;;23.62;15.15;;;;;;;0.93;100.00;100766.74;1766556;80;21236;-82
2021/12/16 04:30:43;;;;;;;21.70;13.53;;;;;;;0.90;100.00;100777.74;1785917;80;21192;-82
2021/12/16 04:33:50;;;;;;;23.02;13.85;;;;;;;0.83;100.00;100789.87;1785802;80;21295;-82
2021/12/16 04:36:57;;;;;;;21.85;13.68;;;;;;;0.82;100.00;100793.06;1785667;80;21319;-82
2021/12/16 04:40:04;;;;;;;20.27;14.00;;;;;;;0.84;100.00;100789.77;1754815;82;21256;-82
2021/12/16 04:43:18;;;;;;;20.82;12.98;;;;;;;0.88;100.00;100791.78;1766515;80;21768;-82
2021/12/16 04:46:26;;;;;;;23.42;12.85;;;;;;;0.88;100.00;100790.43;1785044;80;21274;-82
2021/12/16 04:49:31;;;;;;;22.17;14.47;;;;;;;0.89;100.00;100780.89;1784571;80;21295;-82
2021/12/16 04:52:37;;;;;;;22.02;14.28;;;;;;;0.90;100.00;100793.42;1785602;80;21296;-82
2021/12/16 04:55:43;;;;;;;26.80;16.02;;;;;;;0.90;100.00;100796.59;1771504;80;21300;-82
2021/12/16 04:58:52;;;;;;;26.07;15.30;;;;;;;0.91;100.00;100799.67;1784741;80;21322;-82
2021/12/16 05:02:04;;;;;;;33.53;19.27;;;;;;;0.92;100.00;100796.86;1783225;80;21831;-82
2021/12/16 05:05:05;;;;;;;34.33;19.37;;;;;;;0.94;100.00;100791.36;1784826;80;21850;-82
2021/12/16 05:08:13;;;;;;;31.42;15.98;;;;;;;0.90;100.00;100806.89;1756419;80;21279;-82
2021/12/16 05:11:21;;;;;;;29.50;17.32;;;;;;;0.89;100.00;100809.17;1781656;80;21184;-82
2021/12/16 05:14:26;;;;;;;27.30;17.07;;;;;;;0.87;100.00;100807.56;1756240;80;21164;-82
2021/12/16 05:17:41;;;;;;;26.02;16.52;;;;;;;0.85;100.00;100803.64;1754659;82;21330;-82
2021/12/16 05:20:46;;;;;;;29.85;17.37;;;;;;;0.86;100.00;100809.40;1715191;83;21267;-82
2021/12/16 05:24:55;;;;;;;31.85;17.45;;;;;;;0.87;100.00;100812.95;1716520;82;21664;-82
2021/12/16 05:27:10;;;;;;;29.37;16.48;;;;;;;0.85;100.00;100816.21;1698609;83;21239;-81
2021/12/16 05:30:16;;;;;;;34.38;18.52;;;;;;;0.84;100.00;100812.66;1713011;83;21354;-82
2021/12/16 05:33:22;;;;;;;24.85;16.32;;;;;;;0.82;100.00;100812.40;1726636;82;22438;-81
2021/12/16 05:36:30;;;;;;;25.95;15.30;;;;;;;0.81;100.00;100820.10;1741845;82;21385;-81
2021/12/16 05:39:34;;;;;;;28.35;16.57;;;;;;;0.75;100.00;100810.13;1723124;82;21251;-82
2021/12/16 05:43:00;;;;;;;22.27;15.25;;;;;;;0.74;100.00;100812.41;1721712;82;21740;-82
2021/12/16 05:46:06;;;;;;;20.08;12.73;;;;;;;0.74;100.00;100811.55;1727575;82;21239;-82
2021/12/16 05:49:16;;;;;;;22.32;13.08;;;;;;;0.71;100.00;100826.09;1726929;82;21302;-82
2021/12/16 05:52:21;;;;;;;19.65;13.22;;;;;;;0.69;100.00;100837.42;1726372;82;21266;-82
2021/12/16 05:55:27;;;;;;;19.52;12.03;;;;;;;0.67;100.00;100846.10;1725988;82;21247;-82
2021/12/16 05:58:45;;;;;;;28.47;16.62;;;;;;;0.66;100.00;100856.50;1729194;82;21160;-82
2021/12/16 06:01:53;;;;;;;28.00;15.88;;;;;;;0.69;100.00;100848.20;1728449;82;21141;-82
2021/12/16 06:05:00;;;;;;;32.10;17.95;;;;;;;0.75;100.00;100855.00;1720943;82;21341;-82
2021/12/16 06:08:06;;;;;;;29.50;17.12;;;;;;;0.74;100.00;100855.98;1719352;82;21316;-81
2021/12/16 06:11:21;;;;;;;33.38;18.77;;;;;;;0.71;100.00;100858.41;1721016;82;21318;-82
2021/12/16 06:14:44;;;;;;;24.87;14.50;;;;;;;0.71;100.00;100859.75;1718984;82;21239;-82
2021/12/16 06:28:07;;;;;;;19.20;12.58;;;;;;;0.71;100.00;100862.45;1750546;81;21517;-82
2021/12/16 06:31:21;;;;;;;20.00;12.05;;;;;;;0.69;100.00;100871.09;1747743;81;22157;-82
2021/12/16 06:34:49;;;;;;;22.48;12.37;;;;;;;0.65;100.00;100868.69;1743772;81;21173;-84
2021/12/16 06:37:54;;;;;;;24.52;15.10;;;;;;;0.59;100.00;100853.80;1748458;79;22263;-81
2021/12/16 06:41:06;;;;;;;26.17;13.98;;;;;;;0.54;100.00;100857.28;1744068;80;21261;-81
2021/12/16 06:44:40;;;;;;;;;;;;;;;;;;;;;
2021/12/16 06:47:48;;;;;;;29.82;15.75;;;;;;;0.51;100.00;100858.33;1741017;79;21240;-82
2021/12/16 06:51:07;;;;;;;23.87;14.78;;;;;;;0.57;100.00;100861.62;1730715;81;21165;-81
2021/12/16 06:54:11;;;;;;;24.35;15.38;;;;;;;0.59;100.00;100856.98;1750317;81;21287;-82
2021/12/16 06:57:34;;;;;;;26.00;15.80;;;;;;;0.57;100.00;100852.20;1746064;81;21275;-83
2021/12/16 07:00:41;;;;;;;21.37;14.23;;;;;;;0.53;100.00;100854.21;1747064;79;21180;-83
2021/12/16 07:03:47;;;;;;;26.27;15.32;;;;;;;0.52;100.00;100864.60;1745825;79;21287;-84
2021/12/16 07:06:52;;;;;;;23.62;14.98;;;;;;;0.54;100.00;100864.49;1736711;79;21208;-83
2021/12/16 07:10:00;;;;;;;22.55;13.72;;;;;;;0.59;100.00;100867.75;1748380;79;21283;-83
2021/12/16 07:13:16;;;;;;;24.00;14.58;;;;;;;0.57;100.00;100866.52;1747159;81;21284;-83
2021/12/16 07:16:15;;;;;;;30.52;15.25;;;;;;;0.58;100.00;100860.64;1747711;79;21427;-81
2021/12/16 07:19:25;;;;;;;22.87;15.65;;;;;;;0.61;100.00;100867.16;1749151;81;21307;-81
2021/12/16 07:22:34;;;;;;;21.85;13.38;;;;;;;0.63;100.00;100861.20;1742630;79;21315;-81
2021/12/16 07:25:41;;;;;;;23.07;14.98;;;;;;;0.68;100.00;100863.13;1749457;81;21914;-81
2021/12/16 07:28:47;;;;;;;27.45;15.90;;;;;;;0.70;100.00;100864.73;1745085;81;21263;-81
2021/12/16 07:31:59;;;;;;;22.40;14.38;;;;;;;0.68;100.00;100867.16;1746354;79;21633;-82
2021/12/16 07:35:04;;;;;;;26.87;16.75;;;;;;;0.58;100.00;100857.47;1747566;79;21598;-82
2021/12/16 07:38:09;;;;;;;22.42;13.55;;;;;;;0.55;100.00;100854.96;1749887;79;21276;-82
2021/12/16 07:41:20;;;;;;;33.28;18.85;;;;;;;0.62;100.00;100855.45;1747497;79;21378;-81
2021/12/16 07:44:27;;;;;;;27.75;16.00;;;;;;;0.65;100.00;100849.36;1745357;81;21289;-80
2021/12/16 07:47:58;;;;;;;34.27;18.32;;;;;;;0.74;100.00;100839.33;1739825;81;21232;-81
2021/12/16 07:51:07;;;;;;;30.00;17.23;;;;;;;0.83;100.00;100842.40;1732976;81;21212;-81
2021/12/16 07:54:16;;;;;;;30.32;17.67;;;;;;;0.85;100.00;100845.84;1727272;81;21717;-80
2021/12/16 07:57:29;;;;;;;29.57;16.10;;;;;;;0.89;100.00;100848.72;1700646;81;21165;-81
2021/12/16 08:00:37;;;;;;;27.15;15.90;;;;;;;0.89;100.00;100859.00;1748831;81;21247;-82
2021/12/16 08:03:44;;;;;;;34.58;19.02;;;;;;;0.89;100.00;100864.88;1747787;81;21320;-80
2021/12/16 08:06:51;;;;;;;27.05;17.55;;;;;;;0.88;100.00;100857.77;1743248;79;21344;-81
2021/12/16 08:10:00;;;;;;;32.28;19.62;;;;;;;0.89;100.00;100862.18;1746137;79;21756;-80
2021/12/16 08:13:13;;;;;;;33.70;19.60;;;;;;;0.94;100.00;100867.67;1749159;81;21765;-80
2021/12/16 08:16:22;;;;;;;;;;;;;;;0.95;100.00;100868.53;1756382;79;21167;-80
2021/12/16 08:19:29;;;;;;;36.28;21.57;;;;;;;0.98;100.00;100861.58;1756480;79;20342;-82
2021/12/16 08:22:33;;;;;;;36.63;18.90;;;;;;;0.99;100.00;100860.15;1758047;79;22354;-81
2021/12/16 08:25:42;;;;;;;32.23;18.55;;;;;;;1.01;100.00;100858.69;1761391;79;21160;-81
2021/12/16 08:28:47;;;;;;;44.67;24.47;;;;;;;1.09;100.00;100860.89;1757115;79;21342;-80
2021/12/16 08:31:54;;;;;;;34.13;18.98;;;;;;;1.12;100.00;100862.88;1758128;79;21303;-80
2021/12/16 08:35:06;;;;;;;38.05;21.00;;;;;;;1.18;100.00;100869.70;1740634;79;21557;-81
2021/12/16 08:38:14;;;;;;;38.78;23.15;;;;;;;1.21;100.00;100873.03;1744201;79;21177;-81
2021/12/16 08:41:32;;;;;;;43.65;24.87;;;;;;;1.21;100.00;100860.91;1705776;80;21172;-81
2021/12/16 08:44:38;;;;;;;46.98;24.72;;;;;;;1.22;100.00;100846.48;1683423;82;21577;-81
2021/12/16 08:47:43;;;;;;;54.05;28.10;;;;;;;1.24;100.00;100844.55;1712621;81;21313;-80
2021/12/16 08:50:52;;;;;;;48.17;25.85;;;;;;;1.27;100.00;100830.88;1710091;81;21573;-81
2021/12/16 08:53:58;;;;;;;55.90;29.57;;;;;;;1.31;100.00;100831.98;1711417;81;21271;-80
2021/12/16 08:57:03;;;;;;;61.98;29.98;;;;;;;1.27;100.00;100832.22;1713111;81;21181;-81
2021/12/16 09:00:08;;;;;;;60.30;27.58;;;;;;;1.32;100.00;100822.47;1714543;81;21623;-81
2021/12/16 09:03:14;;;;;;;40.15;21.57;;;;;;;1.40;100.00;100823.28;1672150;82;21715;-81
2021/12/16 09:06:19;;;;;;;41.90;22.15;;;;;;;1.45;100.00;100817.94;1700491;82;21669;-80
2021/12/16 09:09:26;;;;;;;36.25;20.00;;;;;;;1.42;100.00;100820.87;1699794;82;21214;-80
2021/12/16 09:16:00;;;;;;;;;;;;;;;;;;;;;
2021/12/16 09:18:57;;;;;;;72.67;26.85;;;;;;;1.28;100.00;100798.91;1709680;81;21219;-83
2021/12/16 09:22:04;;;;;;;53.95;23.70;;;;;;;1.32;100.00;100798.67;1680042;81;21818;-82
2021/12/16 09:25:44;;;;;;;52.78;22.35;;;;;;;1.34;100.00;100788.66;1692143;82;21196;-82
2021/12/16 09:28:54;;;;;;;64.85;25.23;;;;;;;1.31;100.00;100792.91;1672177;82;21183;-81
2021/12/16 09:32:04;;;;;;;61.55;26.05;;;;;;;1.30;100.00;100800.62;1677136;82;21658;-80
2021/12/16 09:35:14;;;;;;;46.90;22.35;;;;;;;1.37;100.00;100797.90;1684903;83;21242;-81
2021/12/16 09:38:20;;;;;;;51.77;24.95;;;;;;;1.40;100.00;100786.39;1722933;80;21218;-80
2021/12/16 09:41:25;;;;;;;58.23;25.65;;;;;;;1.40;100.00;100788.23;1699820;83;21275;-80
2021/12/16 09:44:31;;;;;;;70.40;27.05;;;;;;;1.40;100.00;100781.49;1703905;82;21196;-80
2021/12/16 09:47:45;;;;;;;55.23;26.37;;;;;;;1.49;100.00;100775.46;1825160;76;22253;-80
2021/12/16 09:50:52;;;;;;;61.92;26.87;;;;;;;1.48;100.00;100775.09;1792849;78;21713;-81
2021/12/16 09:54:00;;;;;;;65.32;27.25;;;;;;;1.49;100.00;100768.72;1798523;78;21792;-80
2021/12/16 09:57:05;;;;;;;49.48;24.18;;;;;;;1.50;100.00;100754.27;1799124;78;21294;-81
2021/12/16 10:00:18;;;;;;;56.88;26.87;;;;;;;1.53;100.00;100759.45;1795581;78;22216;-80
2021/12/16 10:03:29;;;;;;;45.52;22.17;;;;;;;1.52;100.00;100755.04;1777723;78;21446;-81
2021/12/16 10:06:42;;;;;;;47.00;23.85;;;;;;;1.56;100.00;100757.91;1796890;78;21335;-81
2021/12/16 10:09:50;;;;;;;70.57;31.90;;;;;;;1.51;100.00;100743.89;1797866;78;21148;-81
2021/12/16 10:13:01;;;;;;;73.65;33.25;;;;;;;1.40;100.00;100734.32;1796687;78;21164;-77
2021/12/16 10:20:01;;;;;;;52.13;23.22;;;;;;;1.43;100.00;100735.47;1768273;79;21163;-79
2021/12/16 10:23:19;;;;;;;57.27;23.95;;;;;;;1.40;100.00;100734.32;1767592;79;21337;-80
2021/12/16 10:26:42;;;;;;;46.13;21.48;;;;;;;1.36;100.00;100738.20;1739951;81;21176;-80
2021/12/16 10:29:53;;;;;;;43.92;22.58;;;;;;;1.38;100.00;100730.39;1730984;81;21190;-80
2021/12/16 10:32:59;;;;;;;44.42;23.18;;;;;;;1.38;100.00;100738.97;1723520;82;21191;-80
2021/12/16 10:36:23;;;;;;;50.45;24.75;;;;;;;1.37;100.00;100738.59;1723350;82;21721;-80
2021/12/16 10:39:31;;;;;;;41.83;22.25;;;;;;;1.40;100.00;100739.22;1722755;81;21334;-82
2021/12/16 10:42:38;;;;;;;41.90;19.90;;;;;;;1.40;100.00;100734.32;1739747;81;21192;-80
2021/12/16 10:45:50;;;;;;;60.35;29.30;;;;;;;1.31;100.00;100718.30;1741004;80;21327;-80
2021/12/16 10:49:06;;;;;;;51.48;25.68;;;;;;;1.24;100.00;100719.72;1712216;81;22412;-80
2021/12/16 10:52:35;;;;;;;65.10;31.17;;;;;;;1.22;100.00;100722.98;1712723;82;21775;-81
2021/12/16 10:56:05;;;;;;;76.85;35.15;;;;;;;1.24;100.00;100715.67;1693885;82;22334;-80
2021/12/16 10:59:43;;;;;;;73.90;33.58;;;;;;;1.30;100.00;100705.80;1673989;82;22070;-80
2021/12/16 11:03:22;;;;;;;82.70;39.25;;;;;;;1.36;100.00;100708.05;1710514;81;21830;-80
2021/12/16 11:06:51;;;;;;;88.82;40.73;;;;;;;1.39;100.00;100695.72;1719415;81;21313;-80
2021/12/16 11:10:35;;;;;;;86.45;38.10;;;;;;;1.45;100.00;100683.64;1741378;81;21476;-81
2021/12/16 11:14:12;;;;;;;68.42;33.48;;;;;;;1.49;100.00;100685.15;1711474;82;22219;-79
2021/12/16 11:17:19;;;;;;;74.53;35.95;;;;;;;1.53;100.00;100681.27;1712889;80;21216;-80
2021/12/16 11:20:54;;;;;;;93.62;40.67;;;;;;;1.54;100.00;100669.50;1711615;81;21244;-79
2021/12/16 11:23:59;;;;;;;68.60;33.67;;;;;;;1.55;100.00;100660.44;1735750;81;21370;-81
2021/12/16 11:27:26;;;;;;;62.65;31.57;;;;;;;1.53;100.00;100657.86;1738859;80;21545;-80
2021/12/16 11:30:44;;;;;;;92.60;43.83;;;;;;;1.49;100.00;100660.89;1732252;80;21218;-81
2021/12/16 11:34:08;;;;;;;102.80;45.55;;;;;;;1.48;100.00;100652.42;1732942;81;21184;-81
2021/12/16 11:37:16;;;;;;;94.92;44.53;;;;;;;1.46;100.00;100648.99;1734054;81;21200;-80
2021/12/16 11:40:28;;;;;;;94.22;41.98;;;;;;;1.42;100.00;100646.14;1718608;81;21395;-82
2021/12/16 11:44:08;;;;;;;86.85;40.20;;;;;;;1.38;100.00;100647.33;1735011;81;21213;-79
2021/12/16 11:47:25;;;;;;;82.45;38.25;;;;;;;1.38;100.00;100648.67;1733561;81;21228;-82
2021/12/16 11:50:34;;;;;;;93.87;42.93;;;;;;;1.39;100.00;100646.34;1722013;81;21283;-81
2021/12/16 11:53:47;;;;;;;75.87;35.80;;;;;;;1.35;100.00;100640.80;1705332;81;21228;-81
2021/12/16 11:57:03;;;;;;;68.50;33.23;;;;;;;1.35;100.00;100642.14;1702764;83;21836;-80
2021/12/16 12:00:12;;;;;;;76.47;34.40;;;;;;;1.29;100.00;100640.75;1730333;81;21334;-82
2021/12/16 12:03:21;;;;;;;68.95;30.45;;;;;;;1.25;100.00;100638.75;1703454;83;21462;-80
2021/12/16 12:06:32;;;;;;;74.32;34.10;;;;;;;1.16;100.00;100632.66;1721227;81;21169;-80
2021/12/16 12:09:45;;;;;;;64.72;31.37;;;;;;;1.09;100.00;100627.84;1699922;83;21235;-80
2021/12/16 12:12:54;;;;;;;67.03;33.05;;;;;;;1.08;100.00;100639.06;1723419;81;21196;-79
2021/12/16 12:19:18;;;;;;;71.17;34.73;;;;;;;1.11;100.00;100642.05;1843403;76;28250;-80
2021/12/16 12:22:31;;;;;;;74.25;35.58;;;;;;;1.04;100.00;100642.97;1815829;77;21148;-80
2021/12/16 12:25:37;;;;;;;51.00;25.85;;;;;;;1.08;100.00;100650.33;1814686;77;21764;-81
2021/12/16 12:28:46;;;;;;;74.20;38.38;;;;;;;1.07;100.00;100646.78;1814110;77;21325;-81
2021/12/16 12:32:18;;;;;;;68.30;33.55;;;;;;;1.03;100.00;100633.14;1755279;77;21160;-83
2021/12/16 12:35:38;;;;;;;53.10;28.65;;;;;;;1.02;100.00;100628.24;1792383;77;21314;-83
2021/12/16 12:38:48;;;;;;;51.50;26.00;;;;;;;1.04;100.00;100633.55;1811769;77;22647;-82
2021/12/16 12:41:53;;;;;;;52.60;27.48;;;;;;;1.02;100.00;100636.81;1813570;77;21290;-82
2021/12/16 12:44:59;;;;;;;49.88;27.45;;;;;;;0.95;100.00;100636.88;1814291;77;21247;-82
2021/12/16 12:48:07;;;;;;;53.73;28.40;;;;;;;0.88;100.00;100635.08;1814026;77;22016;-85
2021/12/16 12:51:17;;;;;;;44.58;23.85;;;;;;;0.80;100.00;100640.16;1758106;80;21354;-83
2021/12/16 12:57:37;;;;;;;54.75;27.70;;;;;;;0.79;100.00;100638.41;1820831;76;28859;-80
2021/12/16 13:00:53;;;;;;;60.73;30.40;;;;;;;0.80;100.00;100646.89;1767541;79;21685;-86
2021/12/16 13:04:01;;;;;;;61.10;28.87;;;;;;;0.86;100.00;100634.34;1767829;79;21205;-84
2021/12/16 13:07:14;;;;;;;48.87;25.97;;;;;;;0.94;100.00;100633.78;1673486;82;21179;-79
2021/12/16 13:10:26;;;;;;;40.58;23.45;;;;;;;0.96;100.00;100639.95;1731238;80;22053;-79
2021/12/16 13:13:34;;;;;;;43.20;22.05;;;;;;;0.92;100.00;100631.20;1737082;80;21182;-79
2021/12/16 13:16:56;;;;;;;44.05;24.65;;;;;;;0.92;100.00;100634.39;1718976;81;21200;-78
2021/12/16 13:23:29;;;;;;;44.88;23.73;;;;;;;0.95;100.00;100630.14;1721912;81;21295;-81
2021/12/16 13:26:42;;;;;;;40.05;22.62;;;;;;;0.95;100.00;100628.31;1736621;81;21693;-85
2021/12/16 13:30:03;;;;;;;38.88;21.75;;;;;;;0.92;100.00;100620.92;1731290;81;21981;-84
2021/12/16 13:33:20;;;;;;;29.45;18.73;;;;;;;0.89;100.00;100623.81;1737778;82;21358;-84
2021/12/16 13:36:29;;;;;;;34.25;21.12;;;;;;;0.87;100.00;100623.94;1727697;81;21861;-83
2021/12/16 13:39:33;;;;;;;31.55;18.85;;;;;;;0.89;100.00;100627.37;1714637;82;21321;-80
2021/12/16 13:43:12;;;;;;;32.85;20.45;;;;;;;0.91;100.00;100638.92;1727053;82;21817;-81
2021/12/16 14:00:52;;;;;;;30.17;18.05;;;;;;;0.89;100.00;100630.06;1729726;81;21320;-81
2021/12/16 14:09:32;;;;;;;40.60;17.90;;;;;;;0.86;100.00;100625.40;1742807;81;21162;-80
2021/12/16 14:23:11;;;;;;;25.60;14.13;;;;;;;0.59;100.00;100622.28;1732387;83;21342;-85
2021/12/16 14:34:28;;;;;;;26.68;14.78;;;;;;;0.61;100.00;100607.36;1699676;83;21210;-85
2021/12/16 14:39:57;;;;;;;30.48;14.30;;;;;;;0.58;100.00;100602.21;1731305;81;21158;-85
2021/12/16 14:46:16;;;;;;;28.90;13.68;;;;;;;0.57;100.00;100598.66;1727184;83;21276;-86
2021/12/16 14:49:21;;;;;;;37.17;16.32;;;;;;;0.61;100.00;100597.94;1728670;83;21269;-82
2021/12/16 14:52:36;;;;;;;55.70;15.90;;;;;;;0.61;100.00;100596.14;1734092;83;21204;-85
2021/12/16 14:55:44;;;;;;;20.85;12.07;;;;;;;0.61;100.00;100594.80;1734729;83;21174;-85
2021/12/16 14:58:53;;;;;;;21.85;11.50;;;;;;;0.63;100.00;100596.88;1725601;83;21893;-81
2021/12/16 15:02:00;;;;;;;25.90;12.70;;;;;;;0.65;100.00;100600.31;1726626;83;21799;-86
2021/12/16 15:05:05;;;;;;;133.37;16.32;;;;;;;0.65;100.00;100608.39;1771634;81;21295;-82
2021/12/16 15:08:27;;;;;;;91.12;17.07;;;;;;;0.65;100.00;100600.31;1771949;81;21217;-82
2021/12/16 15:11:44;;;;;;;24.43;14.00;;;;;;;0.63;100.00;100593.33;1771903;81;21268;-86
2021/12/16 15:38:32;;;;;;;60.73;19.73;;;;;;;0.16;100.00;100586.18;1771826;81;21312;-82
2021/12/16 15:44:40;;;;;;;31.20;16.40;;;;;;;0.08;100.00;100584.48;1772069;81;21375;-81
2021/12/16 15:47:52;;;;;;;111.12;28.67;;;;;;;0.07;100.00;100589.97;1771640;81;21866;-85
2021/12/16 15:51:12;;;;;;;115.72;26.65;;;;;;;0.01;100.00;100585.02;1771957;81;21328;-85
2021/12/16 15:54:18;;;;;;;77.35;24.65;;;;;;;-0.08;100.00;100582.45;1771984;81;21265;-81
2021/12/16 15:57:26;;;;;;;61.50;24.00;;;;;;;-0.16;100.00;100576.70;1783012;80;21328;-85
2021/12/16 16:00:30;;;;;;;86.00;29.75;;;;;;;-0.25;100.00;100575.48;1769072;80;21695;-81
2021/12/16 16:03:35;;;;;;;66.17;28.00;;;;;;;-0.29;100.00;100579.33;1785342;80;21165;-82
2021/12/16 16:06:41;;;;;;;71.57;29.57;;;;;;;-0.27;100.00;100570.22;1785529;80;21192;-81
2021/12/16 16:09:52;;;;;;;92.02;25.15;;;;;;;-0.19;100.00;100572.86;1785458;80;21137;-83
2021/12/16 16:12:57;;;;;;;94.55;27.30;;;;;;;-0.14;100.00;100566.70;1785376;80;21326;-85
2021/12/16 16:16:06;;;;;;;64.47;22.30;;;;;;;-0.11;100.00;100563.81;1785406;80;22020;-82
2021/12/16 16:19:13;;;;;;;64.97;25.70;;;;;;;-0.09;100.00;100565.45;1784750;79;21228;-81
2021/12/16 16:22:19;;;;;;;60.65;26.85;;;;;;;-0.09;100.00;100564.59;1784820;80;21208;-85
2021/12/16 16:25:24;;;;;;;127.62;31.02;;;;;;;-0.07;100.00;100561.31;1785293;80;21323;-83
2021/12/16 16:28:32;;;;;;;56.42;24.32;;;;;;;-0.03;100.00;100550.25;1767959;80;21247;-81
2021/12/16 16:31:37;;;;;;;68.87;28.50;;;;;;;0.01;100.00;100550.05;1789650;80;21366;-85
2021/12/16 16:35:01;;;;;;;76.87;27.50;;;;;;;-0.04;100.00;100555.25;1785310;80;21212;-86
2021/12/16 16:38:30;;;;;;;63.33;27.95;;;;;;;-0.05;100.00;100548.16;1785437;80;22195;-82
2021/12/16 16:41:38;;;;;;;66.75;21.07;;;;;;;-0.03;100.00;100532.77;1785496;80;21335;-81
2021/12/16 16:44:44;;;;;;;101.67;39.63;;;;;;;0.03;100.00;100534.66;1785300;80;21189;-81
2021/12/16 16:47:53;;;;;;;102.78;39.85;;;;;;;0.06;100.00;100538.50;1783699;79;21197;-85
2021/12/16 16:50:59;;;;;;;86.90;35.17;;;;;;;0.09;100.00;100533.74;1785253;80;21303;-83
2021/12/16 16:54:20;;;;;;;95.83;37.35;;;;;;;0.15;100.00;100522.59;1785338;80;21288;-81
2021/12/16 16:57:45;;;;;;;107.75;41.20;;;;;;;0.15;100.00;100521.73;1784601;80;21176;-84
2021/12/16 17:00:55;;;;;;;99.37;40.03;;;;;;;0.11;100.00;100515.69;1771668;80;21292;-80
2021/12/16 17:04:00;;;;;;;82.22;33.85;;;;;;;0.14;100.00;100518.64;1771415;81;21291;-84
2021/12/16 17:07:08;;;;;;;103.07;39.25;;;;;;;0.12;100.00;100502.61;1771330;81;21236;-82
2021/12/16 17:10:32;;;;;;;107.03;42.08;;;;;;;0.08;100.00;100496.20;1770421;81;21153;-83
2021/12/16 17:14:11;;;;;;;102.65;38.75;;;;;;;0.03;100.00;100492.48;1770492;81;21280;-80
2021/12/16 17:17:23;;;;;;;119.62;43.38;;;;;;;0.01;100.00;100490.88;1765164;81;21777;-80
2021/12/16 17:20:28;;;;;;;78.52;33.35;;;;;;;-0.01;100.00;100489.62;1771721;81;21157;-82
2021/12/16 17:23:40;;;;;;;106.75;35.73;;;;;;;-0.07;100.00;100481.98;1771909;81;21167;-84
2021/12/16 17:27:07;;;;;;;65.20;28.90;;;;;;;-0.14;100.00;100484.23;1771821;81;21185;-84
2021/12/16 17:30:20;;;;;;;56.95;25.45;;;;;;;-0.13;100.00;100476.54;1771823;81;21138;-82
2021/12/16 17:33:35;;;;;;;47.20;21.27;;;;;;;-0.11;100.00;100473.25;1771871;81;21304;-84
2021/12/16 17:36:41;;;;;;;64.92;26.87;;;;;;;-0.13;100.00;100470.30;1771856;81;21303;-81
2021/12/16 17:39:54;;;;;;;57.00;23.42;;;;;;;-0.17;100.00;100462.92;1741134;82;21861;-81
2021/12/16 17:43:05;;;;;;;39.25;18.45;;;;;;;-0.12;100.00;100458.58;1741271;82;21319;-80
2021/12/16 17:46:19;;;;;;;40.08;18.02;;;;;;;-0.10;100.00;100456.63;1741455;82;21343;-81
2021/12/16 17:49:24;;;;;;;33.95;15.88;;;;;;;-0.13;100.00;100456.38;1741426;82;21327;-83
2021/12/16 17:52:33;;;;;;;30.50;15.65;;;;;;;-0.15;100.00;100460.98;1733430;82;21273;-81
2021/12/16 17:55:44;;;;;;;30.77;14.78;;;;;;;-0.16;100.00;100459.27;1741399;82;21303;-84
2021/12/16 17:58:50;;;;;;;23.07;12.33;;;;;;;-0.12;100.00;100457.23;1741527;82;21205;-84
2021/12/16 18:01:56;;;;;;;23.38;12.80;;;;;;;-0.10;100.00;100453.94;1751837;82;21283;-84
2021/12/16 18:05:04;;;;;;;23.50;13.00;;;;;;;-0.08;100.00;100455.58;1754605;82;21295;-84
2021/12/16 18:08:10;;;;;;;25.20;10.78;;;;;;;-0.07;100.00;100453.74;1754756;82;21334;-84
2021/12/16 18:11:20;;;;;;;23.95;12.30;;;;;;;-0.06;100.00;100458.15;1754722;82;21288;-81
2021/12/16 18:14:45;;;;;;;19.40;10.68;;;;;;;-0.01;100.00;100445.25;1754702;82;21314;-80